Time;durP1;ratioP1;P1;durP2;ratioP2;P2;SDS_P1;SDS_P2;PMS_P1;PMS_P2;Temp;Humidity;BMP_temperature;BMP_pressure;BME280_temperature;BME280_humidity;BME280_pressure;Samples;Min_cycle;Max_cycle;Signal;HPM_P1;HPM_P2
2023/09/15 00:04:03;;;;;;;4.30;3.90;;;24.60;61.70;;;;;;229513;1249;22332;-62
2023/09/15 00:09:14;;;;;;;6.30;4.20;;;24.70;61.80;;;;;;229515;1249;22267;-62
2023/09/15 00:14:18;;;;;;;4.20;3.60;;;24.60;61.50;;;;;;229227;1263;271510;-61
2023/09/15 00:19:22;;;;;;;4.60;4.20;;;24.70;61.50;;;;;;229387;1252;24569;-61
2023/09/15 00:24:25;;;;;;;4.30;3.80;;;24.70;61.60;;;;;;229515;1263;22262;-62
2023/09/15 00:29:28;;;;;;;4.90;4.00;;;24.70;61.60;;;;;;229545;1249;23034;-61
2023/09/15 00:34:31;;;;;;;4.40;4.00;;;24.70;61.50;;;;;;229528;1263;22411;-62
2023/09/15 00:39:33;;;;;;;5.40;3.90;;;24.70;61.50;;;;;;229515;1249;22233;-61
2023/09/15 00:44:36;;;;;;;4.20;3.70;;;24.70;61.50;;;;;;229543;1252;22581;-62
2023/09/15 00:49:39;;;;;;;3.60;3.30;;;24.60;61.40;;;;;;229480;1252;22248;-61
2023/09/15 00:54:42;;;;;;;3.60;3.30;;;24.60;61.50;;;;;;229556;1263;22369;-61
2023/09/15 00:59:46;;;;;;;4.00;3.60;;;24.60;61.60;;;;;;229552;1252;22298;-62
2023/09/15 01:04:48;;;;;;;3.60;3.30;;;24.60;61.50;;;;;;229501;1263;22264;-62
2023/09/15 01:09:51;;;;;;;3.60;3.30;;;24.60;61.40;;;;;;229550;1263;22623;-62
2023/09/15 01:14:54;;;;;;;4.40;3.30;;;24.60;61.40;;;;;;229535;1252;22354;-61
2023/09/15 01:20:09;;;;;;;3.70;3.20;;;24.60;61.60;;;;;;229547;1263;23109;-61
2023/09/15 01:25:20;;;;;;;3.70;3.10;;;24.60;61.40;;;;;;229541;1250;22259;-61
2023/09/15 01:30:24;;;;;;;3.40;3.20;;;24.60;61.40;;;;;;229454;1253;22322;-61
2023/09/15 01:35:27;;;;;;;3.60;3.20;;;24.60;61.60;;;;;;229470;1258;23049;-62
2023/09/15 01:40:31;;;;;;;3.80;3.40;;;24.50;61.50;;;;;;229489;1255;22353;-62
2023/09/15 01:45:34;;;;;;;6.20;3.50;;;24.60;61.50;;;;;;229549;1263;22272;-61
2023/09/15 01:50:37;;;;;;;4.80;3.40;;;24.60;61.40;;;;;;229498;1263;22274;-61
2023/09/15 01:55:41;;;;;;;4.50;2.70;;;24.60;61.40;;;;;;229427;1261;22263;-62
2023/09/15 02:00:44;;;;;;;4.00;2.70;;;24.60;61.50;;;;;;229446;1257;22250;-61
2023/09/15 02:05:47;;;;;;;3.60;3.30;;;24.60;61.30;;;;;;229470;1249;22362;-61
2023/09/15 02:10:50;;;;;;;3.10;2.60;;;24.60;61.40;;;;;;229422;1252;22328;-62
2023/09/15 02:15:53;;;;;;;3.60;2.80;;;24.60;61.50;;;;;;229422;1253;22282;-61
2023/09/15 02:20:56;;;;;;;4.00;3.60;;;24.60;61.30;;;;;;229356;1263;22318;-61
2023/09/15 02:26:05;;;;;;;3.00;2.80;;;24.70;61.00;;;;;;229452;1252;22625;-62
2023/09/15 02:31:07;;;;;;;4.30;3.00;;;24.50;61.20;;;;;;229523;1255;22278;-61
2023/09/15 02:36:11;;;;;;;7.20;3.10;;;24.60;61.30;;;;;;229584;1247;22244;-61
2023/09/15 02:41:15;;;;;;;4.00;3.00;;;24.60;61.40;;;;;;229545;1251;24062;-61
2023/09/15 02:46:18;;;;;;;3.00;2.70;;;24.60;61.30;;;;;;229411;1256;22367;-61
2023/09/15 02:51:20;;;;;;;3.40;3.00;;;24.60;61.20;;;;;;229442;1252;23107;-61
2023/09/15 02:56:23;;;;;;;5.20;3.20;;;24.60;61.20;;;;;;229497;1263;22302;-61
2023/09/15 03:01:26;;;;;;;3.00;2.70;;;24.60;61.40;;;;;;229458;1249;22257;-61
2023/09/15 03:06:29;;;;;;;3.80;2.90;;;24.60;61.50;;;;;;229487;1252;22239;-61
2023/09/15 03:11:32;;;;;;;4.90;3.10;;;24.60;61.20;;;;;;229568;1252;22303;-61
2023/09/15 03:16:41;;;;;;;2.90;2.60;;;24.60;61.40;;;;;;229503;1263;24005;-61
2023/09/15 03:21:44;;;;;;;4.00;2.90;;;24.60;61.10;;;;;;229445;1251;22287;-61
2023/09/15 03:26:46;;;;;;;4.60;2.90;;;24.50;61.10;;;;;;229534;1253;22371;-61
2023/09/15 03:31:49;;;;;;;3.00;2.70;;;24.60;61.10;;;;;;229528;1252;22248;-61
2023/09/15 03:36:52;;;;;;;2.90;2.70;;;24.60;61.80;;;;;;229513;1253;23204;-61
2023/09/15 03:41:55;;;;;;;3.10;2.80;;;24.60;61.30;;;;;;229541;1263;22237;-61
2023/09/15 03:46:58;;;;;;;2.80;2.60;;;24.60;61.30;;;;;;229453;1263;22255;-61
2023/09/15 03:52:00;;;;;;;2.80;2.50;;;24.50;61.30;;;;;;229506;1258;22295;-61
2023/09/15 03:57:05;;;;;;;3.20;2.90;;;24.50;61.20;;;;;;229574;1263;22260;-61
2023/09/15 04:02:08;;;;;;;2.80;2.50;;;24.50;61.30;;;;;;229633;1253;23129;-61
2023/09/15 04:07:12;;;;;;;3.00;2.70;;;24.50;61.40;;;;;;229604;1263;24124;-61
2023/09/15 04:12:15;;;;;;;2.70;2.50;;;24.50;61.40;;;;;;229474;1253;22273;-61
2023/09/15 04:17:18;;;;;;;2.50;2.30;;;24.50;61.40;;;;;;229522;1260;22272;-61
2023/09/15 04:22:21;;;;;;;3.00;2.70;;;24.50;61.40;;;;;;229617;1262;22263;-61
2023/09/15 04:27:24;;;;;;;3.20;2.90;;;24.50;61.40;;;;;;229479;1252;22678;-61
2023/09/15 04:32:27;;;;;;;2.90;2.70;;;24.50;61.40;;;;;;229511;1263;22265;-61
2023/09/15 04:37:31;;;;;;;2.70;2.50;;;24.50;61.30;;;;;;229531;1254;23028;-61
2023/09/15 04:42:33;;;;;;;3.00;2.50;;;24.50;61.80;;;;;;229402;1263;23131;-61
2023/09/15 04:47:37;;;;;;;3.30;2.40;;;24.50;61.00;;;;;;229366;1254;22679;-61
2023/09/15 04:52:51;;;;;;;3.10;2.90;;;24.50;61.10;;;;;;229453;1263;22285;-61
2023/09/15 04:57:54;;;;;;;3.00;2.60;;;24.40;61.40;;;;;;229457;1264;22731;-63
2023/09/15 05:02:57;;;;;;;2.50;2.30;;;24.50;61.40;;;;;;229367;1264;22282;-60
2023/09/15 05:08:03;;;;;;;3.60;2.40;;;24.40;61.40;;;;;;229365;1263;22337;-60
2023/09/15 05:13:06;;;;;;;4.60;2.70;;;24.50;61.60;;;;;;229423;1260;22288;-60
2023/09/15 05:18:09;;;;;;;2.80;2.30;;;24.60;61.60;;;;;;229487;1252;22329;-60
2023/09/15 05:23:12;;;;;;;2.80;2.60;;;24.50;61.70;;;;;;229490;1263;22229;-60
2023/09/15 05:28:15;;;;;;;6.30;2.70;;;24.50;61.90;;;;;;229457;1254;22342;-60
2023/09/15 05:33:20;;;;;;;3.10;2.60;;;24.50;62.10;;;;;;229437;1264;22276;-60
2023/09/15 05:38:23;;;;;;;3.50;2.40;;;24.50;61.80;;;;;;229450;1263;23140;-60
2023/09/15 05:43:26;;;;;;;11.00;3.30;;;24.50;62.90;;;;;;229552;1263;22260;-60
2023/09/15 05:48:29;;;;;;;8.60;2.70;;;24.60;62.60;;;;;;229442;1248;22292;-59
2023/09/15 05:53:33;;;;;;;3.50;2.70;;;24.70;62.80;;;;;;229457;1263;22304;-59
2023/09/15 05:58:35;;;;;;;5.20;2.60;;;24.60;63.00;;;;;;229472;1263;24438;-59
2023/09/15 06:03:38;;;;;;;6.20;2.20;;;24.60;63.10;;;;;;229438;1263;22499;-59
2023/09/15 06:08:40;;;;;;;8.30;2.80;;;24.70;63.30;;;;;;229516;1248;22275;-60
2023/09/15 06:13:43;;;;;;;6.00;2.90;;;24.80;62.90;;;;;;229362;1257;22505;-59
2023/09/15 06:18:46;;;;;;;5.30;2.80;;;24.60;63.40;;;;;;229359;1252;22287;-59
2023/09/15 06:23:50;;;;;;;3.10;2.70;;;24.70;63.60;;;;;;229338;1263;22303;-59
2023/09/15 06:28:52;;;;;;;5.00;2.50;;;24.70;63.30;;;;;;229399;1252;22678;-59
2023/09/15 06:33:59;;;;;;;4.70;3.00;;;24.70;63.40;;;;;;229516;1261;22280;-59
2023/09/15 06:39:05;;;;;;;9.40;3.20;;;24.90;63.20;;;;;;229500;1247;22417;-59
2023/09/15 06:44:10;;;;;;;5.80;2.70;;;25.00;63.10;;;;;;229475;1263;22366;-54
2023/09/15 06:49:14;;;;;;;8.60;2.90;;;24.90;63.00;;;;;;229427;1264;22266;-55
2023/09/15 06:54:17;;;;;;;11.80;3.20;;;25.00;63.00;;;;;;229497;1251;22368;-56
2023/09/15 06:59:20;;;;;;;6.40;2.50;;;25.10;62.50;;;;;;229578;1253;22249;-56
2023/09/15 07:04:22;;;;;;;10.10;3.00;;;25.10;63.00;;;;;;229471;1251;22258;-57
2023/09/15 07:09:25;;;;;;;3.90;2.80;;;25.20;62.30;;;;;;229498;1251;22412;-55
2023/09/15 07:14:28;;;;;;;8.90;3.90;;;25.30;62.20;;;;;;229462;1257;22229;-56
2023/09/15 07:19:30;;;;;;;9.00;3.60;;;25.20;62.30;;;;;;229273;1257;22279;-57
2023/09/15 07:24:33;;;;;;;11.10;3.70;;;25.00;62.70;;;;;;229446;1264;22280;-57
2023/09/15 07:29:37;;;;;;;7.50;3.20;;;25.00;62.80;;;;;;229474;1247;23016;-55
2023/09/15 07:34:39;;;;;;;7.40;3.50;;;25.00;63.30;;;;;;229458;1264;23999;-57
2023/09/15 07:39:42;;;;;;;5.20;3.40;;;24.90;62.70;;;;;;229591;1263;24127;-57
2023/09/15 07:44:45;;;;;;;8.30;3.80;;;24.90;62.70;;;;;;229616;1251;22279;-56
2023/09/15 07:49:48;;;;;;;12.10;3.80;;;25.00;62.60;;;;;;229488;1263;22373;-57
2023/09/15 07:54:52;;;;;;;17.60;5.80;;;25.10;62.40;;;;;;229550;1256;22271;-57
2023/09/15 07:59:54;;;;;;;12.20;5.30;;;25.10;64.00;;;;;;229532;1263;22434;-57
2023/09/15 08:04:57;;;;;;;14.50;4.90;;;25.20;64.50;;;;;;229591;1248;22329;-57
2023/09/15 08:10:01;;;;;;;11.50;4.30;;;25.30;64.30;;;;;;229618;1249;24110;-57
2023/09/15 08:15:05;;;;;;;8.90;4.50;;;25.30;63.80;;;;;;229581;1249;22288;-58
2023/09/15 08:20:07;;;;;;;7.50;4.50;;;25.30;63.60;;;;;;229588;1263;23530;-57
2023/09/15 08:25:14;;;;;;;8.10;4.60;;;25.30;63.10;;;;;;229589;1263;22260;-57
2023/09/15 08:30:17;;;;;;;7.80;3.50;;;25.20;63.00;;;;;;229529;1263;23116;-57
2023/09/15 08:35:19;;;;;;;9.70;4.30;;;25.30;63.00;;;;;;229677;1247;22311;-58
2023/09/15 08:40:22;;;;;;;8.40;4.00;;;25.30;62.70;;;;;;229550;1263;22254;-57
2023/09/15 08:45:26;;;;;;;7.70;3.80;;;25.40;62.50;;;;;;229616;1248;23080;-59
2023/09/15 08:50:30;;;;;;;5.80;4.10;;;25.40;62.90;;;;;;229574;1249;23035;-58
2023/09/15 08:55:33;;;;;;;7.90;4.30;;;25.40;62.20;;;;;;229587;1247;22249;-56
2023/09/15 09:00:36;;;;;;;6.20;3.80;;;25.40;62.10;;;;;;229636;1260;22239;-58
2023/09/15 09:05:45;;;;;;;7.60;3.60;;;25.40;62.10;;;;;;229622;1247;22300;-56
2023/09/15 09:10:49;;;;;;;4.70;3.50;;;25.40;62.00;;;;;;223551;1248;24900;-57
2023/09/15 09:15:51;;;;;;;6.90;3.70;;;25.40;62.40;;;;;;229612;1247;22271;-57
2023/09/15 09:20:54;;;;;;;6.20;4.00;;;25.30;62.00;;;;;;229614;1248;22275;-56
2023/09/15 09:26:09;;;;;;;7.60;3.90;;;25.40;61.90;;;;;;229657;1247;23069;-58
2023/09/15 09:31:12;;;;;;;7.10;3.50;;;25.40;61.50;;;;;;229609;1249;22288;-58
2023/09/15 09:36:16;;;;;;;7.90;3.80;;;25.50;61.60;;;;;;229573;1251;23139;-57
2023/09/15 09:41:24;;;;;;;5.00;3.50;;;25.50;61.40;;;;;;229625;1248;22265;-57
2023/09/15 09:46:30;;;;;;;7.90;3.60;;;25.50;61.30;;;;;;229682;1247;22317;-58
2023/09/15 09:51:35;;;;;;;5.20;3.80;;;25.40;61.30;;;;;;229654;1249;22292;-58
2023/09/15 09:56:37;;;;;;;3.60;3.20;;;25.50;61.00;;;;;;229670;1251;22318;-58
2023/09/15 10:01:41;;;;;;;5.40;3.20;;;25.40;61.30;;;;;;229636;1247;22266;-57
2023/09/15 10:06:44;;;;;;;5.60;3.60;;;25.50;61.10;;;;;;229622;1263;22304;-57
2023/09/15 10:11:49;;;;;;;4.30;3.40;;;25.50;61.30;;;;;;225117;1247;22520;-56
2023/09/15 10:16:52;;;;;;;5.20;3.70;;;25.40;61.30;;;;;;229623;1249;22243;-58
2023/09/15 10:21:57;;;;;;;3.80;3.40;;;25.40;61.40;;;;;;229609;1249;22365;-57
2023/09/15 10:26:59;;;;;;;4.30;3.20;;;25.40;61.30;;;;;;229710;1247;22281;-58
2023/09/15 10:32:03;;;;;;;5.10;3.00;;;25.50;61.10;;;;;;229666;1256;22263;-57
2023/09/15 10:37:09;;;;;;;5.30;3.20;;;25.50;60.80;;;;;;229605;1252;22292;-57
2023/09/15 10:42:15;;;;;;;6.20;3.40;;;25.80;60.30;;;;;;229649;1248;22983;-57
2023/09/15 10:47:19;;;;;;;4.30;2.80;;;25.50;60.90;;;;;;229636;1248;22259;-58
2023/09/15 10:52:35;;;;;;;3.80;2.90;;;25.40;61.30;;;;;;229674;1249;22284;-57
2023/09/15 10:57:38;;;;;;;4.50;3.00;;;25.70;60.60;;;;;;229667;1247;23191;-57
2023/09/15 11:02:42;;;;;;;3.20;2.90;;;25.90;60.10;;;;;;229623;1248;23314;-57
2023/09/15 11:07:46;;;;;;;3.80;2.80;;;25.80;60.10;;;;;;229656;1248;22347;-57
2023/09/15 11:12:57;;;;;;;3.90;2.70;;;25.70;60.00;;;;;;229697;1247;22303;-57
2023/09/15 11:18:00;;;;;;;4.90;2.60;;;25.70;60.10;;;;;;229590;1247;22287;-57
2023/09/15 11:23:04;;;;;;;6.10;3.20;;;25.70;60.30;;;;;;229614;1251;22302;-57
2023/09/15 11:28:16;;;;;;;3.70;2.80;;;25.70;60.30;;;;;;229678;1248;22278;-56
2023/09/15 11:33:19;;;;;;;3.70;2.90;;;25.70;60.30;;;;;;229543;1263;22743;-57
2023/09/15 11:38:22;;;;;;;3.00;2.50;;;25.60;60.20;;;;;;229664;1248;23072;-58
2023/09/15 11:43:25;;;;;;;4.50;2.90;;;25.60;60.70;;;;;;229588;1248;22466;-58
2023/09/15 11:48:29;;;;;;;3.20;2.80;;;25.70;60.30;;;;;;229612;1249;22261;-58
2023/09/15 11:53:36;;;;;;;3.10;2.70;;;25.60;60.20;;;;;;229515;1259;22241;-58
2023/09/15 11:58:40;;;;;;;4.50;2.70;;;25.70;60.10;;;;;;229635;1248;22584;-58
2023/09/15 12:03:43;;;;;;;2.80;2.60;;;25.70;60.00;;;;;;229640;1263;22292;-58
2023/09/15 12:08:48;;;;;;;3.80;2.60;;;25.70;60.00;;;;;;229593;1249;22342;-57
2023/09/15 12:13:56;;;;;;;2.40;2.20;;;25.70;59.80;;;;;;229426;1248;262746;-58
2023/09/15 12:19:00;;;;;;;3.90;2.80;;;25.70;59.80;;;;;;229630;1263;22668;-57
2023/09/15 12:24:10;;;;;;;3.40;2.30;;;25.70;59.90;;;;;;229644;1263;23484;-58
2023/09/15 12:29:16;;;;;;;4.10;3.00;;;25.70;59.60;;;;;;229609;1248;22294;-57
2023/09/15 12:34:19;;;;;;;2.50;2.30;;;25.90;59.50;;;;;;229591;1260;23097;-56
2023/09/15 12:39:22;;;;;;;3.90;2.20;;;26.00;59.40;;;;;;229564;1263;22266;-57
2023/09/15 12:44:25;;;;;;;3.50;3.00;;;26.00;59.20;;;;;;229665;1263;22287;-57
2023/09/15 12:49:27;;;;;;;3.50;2.60;;;25.90;59.50;;;;;;229629;1249;22272;-57
2023/09/15 12:54:31;;;;;;;2.40;2.20;;;26.00;59.10;;;;;;229648;1248;22263;-57
2023/09/15 12:59:33;;;;;;;2.60;2.40;;;26.10;58.90;;;;;;229627;1252;22259;-57
2023/09/15 13:04:39;;;;;;;3.60;2.60;;;26.00;59.30;;;;;;229594;1260;22300;-56
2023/09/15 13:09:42;;;;;;;2.80;2.40;;;25.90;59.30;;;;;;229620;1251;24146;-58
2023/09/15 13:14:45;;;;;;;2.50;2.00;;;25.90;59.40;;;;;;229578;1255;22718;-57
2023/09/15 13:19:47;;;;;;;2.40;2.10;;;25.90;59.50;;;;;;229567;1249;23067;-57
2023/09/15 13:24:52;;;;;;;2.50;2.30;;;25.90;59.30;;;;;;229608;1263;22885;-57
2023/09/15 13:29:58;;;;;;;2.30;2.10;;;25.90;59.30;;;;;;229631;1263;22269;-57
2023/09/15 13:35:01;;;;;;;2.50;2.30;;;25.90;59.40;;;;;;229607;1261;23171;-58
2023/09/15 13:40:04;;;;;;;2.30;2.10;;;25.90;59.30;;;;;;229548;1248;22795;-58
2023/09/15 13:45:12;;;;;;;3.90;2.50;;;26.00;59.20;;;;;;229557;1263;23113;-57
2023/09/15 13:50:15;;;;;;;2.60;2.30;;;26.00;59.20;;;;;;229641;1249;22323;-58
2023/09/15 13:55:18;;;;;;;2.40;2.20;;;26.00;59.10;;;;;;229600;1263;22244;-58
2023/09/15 14:00:21;;;;;;;2.20;2.00;;;25.90;59.50;;;;;;229581;1249;22337;-57
2023/09/15 14:05:24;;;;;;;2.20;2.00;;;25.80;59.30;;;;;;229638;1263;22292;-58
2023/09/15 14:10:27;;;;;;;4.20;2.00;;;25.80;59.30;;;;;;229616;1251;23083;-57
2023/09/15 14:15:30;;;;;;;2.60;2.30;;;25.80;59.40;;;;;;229539;1263;22358;-57
2023/09/15 14:20:32;;;;;;;2.30;2.10;;;25.80;59.40;;;;;;229508;1255;22248;-57
2023/09/15 14:25:35;;;;;;;2.00;1.80;;;25.80;59.50;;;;;;229587;1256;23045;-57
2023/09/15 14:30:39;;;;;;;2.10;1.90;;;25.80;59.40;;;;;;229581;1249;22363;-58
2023/09/15 14:35:42;;;;;;;2.80;2.30;;;25.80;59.50;;;;;;229516;1260;22779;-58
2023/09/15 14:40:44;;;;;;;9.50;2.30;;;25.80;59.30;;;;;;229524;1248;22228;-56
2023/09/15 14:45:47;;;;;;;3.10;2.10;;;25.90;59.30;;;;;;229599;1263;22257;-56
2023/09/15 14:50:53;;;;;;;6.40;1.90;;;25.80;59.30;;;;;;229593;1249;22270;-56
2023/09/15 14:55:56;;;;;;;3.50;2.60;;;25.80;58.50;;;;;;229504;1249;22266;-57
2023/09/15 15:00:59;;;;;;;3.10;2.20;;;25.80;58.00;;;;;;229527;1255;22262;-58
2023/09/15 15:06:03;;;;;;;5.00;2.30;;;25.70;56.30;;;;;;229530;1263;23270;-57
2023/09/15 15:11:06;;;;;;;7.70;2.90;;;25.70;56.50;;;;;;229598;1251;22929;-57
2023/09/15 15:16:10;;;;;;;7.10;2.80;;;25.70;57.40;;;;;;229552;1264;23152;-56
2023/09/15 15:21:14;;;;;;;4.20;2.30;;;25.80;57.30;;;;;;229535;1252;22242;-57
2023/09/15 15:26:16;;;;;;;3.70;2.20;;;25.80;57.00;;;;;;229506;1260;22348;-56
2023/09/15 15:31:19;;;;;;;6.30;2.50;;;25.90;56.30;;;;;;229426;1251;22721;-58
2023/09/15 15:36:23;;;;;;;9.90;2.50;;;25.70;57.20;;;;;;229578;1249;22279;-57
2023/09/15 15:41:26;;;;;;;12.20;2.90;;;25.90;56.30;;;;;;229579;1256;22752;-57
2023/09/15 15:46:29;;;;;;;5.50;2.80;;;25.80;56.20;;;;;;229576;1252;23230;-56
2023/09/15 15:51:32;;;;;;;7.30;2.60;;;25.80;57.10;;;;;;229538;1249;22349;-57
2023/09/15 15:56:37;;;;;;;8.10;2.90;;;25.90;56.40;;;;;;229549;1252;22310;-57
2023/09/15 16:01:40;;;;;;;3.00;2.40;;;25.80;56.60;;;;;;229570;1252;22281;-57
2023/09/15 16:06:43;;;;;;;3.00;2.10;;;25.70;57.40;;;;;;229548;1263;22342;-55
2023/09/15 16:11:48;;;;;;;5.50;2.70;;;25.60;57.20;;;;;;229597;1251;22353;-57
2023/09/15 16:16:51;;;;;;;3.00;2.10;;;25.60;56.90;;;;;;229587;1264;22308;-57
2023/09/15 16:21:54;;;;;;;5.40;2.10;;;25.60;56.50;;;;;;229517;1262;22265;-57
2023/09/15 16:26:57;;;;;;;2.50;2.30;;;25.50;56.80;;;;;;229571;1263;24046;-56
2023/09/15 16:32:00;;;;;;;2.40;2.10;;;25.50;56.70;;;;;;229535;1249;22282;-57
2023/09/15 16:37:04;;;;;;;12.30;3.10;;;25.50;56.60;;;;;;229581;1251;22287;-55
2023/09/15 16:42:10;;;;;;;7.40;2.30;;;25.40;55.40;;;;;;229650;1263;22282;-57
2023/09/15 16:47:19;;;;;;;8.00;2.50;;;25.30;54.90;;;;;;229518;1256;23140;-56
2023/09/15 16:52:24;;;;;;;9.90;2.50;;;25.40;55.50;;;;;;229468;1263;22400;-56
2023/09/15 16:57:33;;;;;;;8.30;2.50;;;25.40;57.80;;;;;;229561;1263;22296;-57
2023/09/15 17:02:37;;;;;;;5.50;2.10;;;25.60;58.00;;;;;;229535;1252;22249;-57
2023/09/15 17:07:41;;;;;;;5.70;2.50;;;25.50;57.00;;;;;;229523;1263;22224;-57
2023/09/15 17:12:44;;;;;;;3.70;2.20;;;25.40;56.70;;;;;;229547;1263;22641;-57
2023/09/15 17:17:48;;;;;;;4.00;2.10;;;25.40;54.90;;;;;;229523;1263;22343;-56
2023/09/15 17:22:52;;;;;;;3.90;1.90;;;25.30;55.40;;;;;;229479;1262;22259;-57
2023/09/15 17:27:56;;;;;;;2.40;1.90;;;25.30;54.80;;;;;;229553;1263;22277;-56
2023/09/15 17:33:00;;;;;;;3.60;2.00;;;25.30;55.00;;;;;;229490;1255;23039;-56
2023/09/15 17:38:04;;;;;;;2.50;2.00;;;25.20;54.20;;;;;;229494;1263;22377;-57
2023/09/15 17:43:07;;;;;;;3.00;2.20;;;25.20;54.10;;;;;;229473;1252;22242;-56
2023/09/15 17:48:12;;;;;;;2.50;2.30;;;25.10;53.60;;;;;;229491;1263;22354;-57
2023/09/15 17:53:19;;;;;;;5.60;2.70;;;25.10;53.00;;;;;;229466;1251;22269;-57
2023/09/15 17:58:24;;;;;;;2.20;2.10;;;25.10;53.50;;;;;;229485;1260;22437;-57
2023/09/15 18:03:30;;;;;;;4.20;2.40;;;25.00;53.20;;;;;;229446;1248;22453;-56
2023/09/15 18:08:34;;;;;;;2.50;2.20;;;25.00;52.90;;;;;;229571;1247;22340;-57
2023/09/15 18:13:38;;;;;;;5.00;2.20;;;25.00;52.70;;;;;;229545;1251;22274;-58
2023/09/15 18:18:46;;;;;;;3.40;1.90;;;24.90;52.70;;;;;;229586;1263;22820;-57
2023/09/15 18:23:53;;;;;;;6.10;2.60;;;25.10;53.10;;;;;;229398;1253;22283;-59
2023/09/15 18:28:57;;;;;;;4.30;2.70;;;25.10;52.80;;;;;;229467;1249;22265;-59
2023/09/15 18:34:00;;;;;;;5.70;4.00;;;25.10;53.50;;;;;;229483;1263;23188;-58
2023/09/15 18:39:05;;;;;;;13.40;3.80;;;25.10;53.60;;;;;;229495;1249;24036;-59
2023/09/15 18:44:08;;;;;;;9.20;3.90;;;25.20;53.70;;;;;;229272;1255;25850;-57
2023/09/15 18:49:16;;;;;;;10.80;4.40;;;25.10;53.70;;;;;;229489;1252;22339;-59
2023/09/15 18:54:26;;;;;;;5.20;3.50;;;25.10;53.80;;;;;;229525;1252;22353;-58
2023/09/15 18:59:32;;;;;;;8.80;5.30;;;25.10;54.10;;;;;;229329;1252;22552;-58
2023/09/15 19:04:39;;;;;;;11.30;4.90;;;25.10;54.10;;;;;;229479;1263;22310;-57
2023/09/15 19:09:45;;;;;;;4.30;3.80;;;25.00;53.90;;;;;;229559;1263;22702;-58
2023/09/15 19:14:49;;;;;;;11.50;4.50;;;25.00;53.50;;;;;;229466;1263;24034;-56
2023/09/15 19:19:56;;;;;;;10.70;4.00;;;25.00;53.90;;;;;;229524;1263;22264;-56
2023/09/15 19:24:59;;;;;;;9.90;3.70;;;25.20;53.70;;;;;;229496;1263;22257;-57
2023/09/15 19:30:06;;;;;;;6.60;3.10;;;25.20;54.30;;;;;;229576;1263;22336;-57
2023/09/15 19:35:12;;;;;;;10.80;4.80;;;25.20;53.00;;;;;;226180;1250;22744;-58
2023/09/15 19:40:17;;;;;;;7.10;3.70;;;25.00;52.80;;;;;;229559;1264;22373;-58
2023/09/15 19:45:23;;;;;;;11.70;3.50;;;24.90;51.30;;;;;;221426;1256;24435;-58
2023/09/15 19:50:28;;;;;;;11.10;3.50;;;24.70;52.20;;;;;;220578;1257;24640;-59
2023/09/15 19:55:33;;;;;;;7.70;3.00;;;24.40;50.60;;;;;;225929;1263;25135;-61
2023/09/15 20:00:39;;;;;;;7.10;3.00;;;24.30;51.30;;;;;;222628;1256;22534;-57
2023/09/15 20:05:44;;;;;;;13.20;3.20;;;24.40;51.20;;;;;;229546;1249;22264;-59
2023/09/15 20:10:50;;;;;;;8.40;2.80;;;24.50;50.70;;;;;;229432;1263;22333;-57
2023/09/15 20:15:54;;;;;;;11.40;3.00;;;24.60;50.50;;;;;;223966;1253;22629;-58
2023/09/15 20:20:59;;;;;;;5.40;2.60;;;24.50;50.00;;;;;;223726;1255;22507;-60
2023/09/15 20:26:07;;;;;;;5.10;3.10;;;24.50;52.10;;;;;;229539;1263;22973;-64
2023/09/15 20:31:11;;;;;;;6.80;3.20;;;24.70;51.10;;;;;;229591;1249;22353;-59
2023/09/15 20:36:14;;;;;;;8.00;2.80;;;24.60;51.60;;;;;;229527;1264;22976;-60
2023/09/15 20:41:18;;;;;;;11.10;3.20;;;24.80;51.70;;;;;;222024;1264;22998;-59
2023/09/15 20:46:30;;;;;;;11.20;4.40;;;24.70;53.10;;;;;;224733;1252;22836;-58
2023/09/15 20:51:34;;;;;;;16.00;3.80;;;24.60;55.00;;;;;;227459;1263;22809;-59
2023/09/15 20:56:42;;;;;;;13.50;6.10;;;24.70;56.40;;;;;;224696;1261;22580;-57
2023/09/15 21:01:46;;;;;;;10.80;3.50;;;24.70;54.80;;;;;;228068;1263;22506;-59
2023/09/15 21:06:49;;;;;;;4.50;2.80;;;24.50;54.30;;;;;;229421;1257;23004;-60
2023/09/15 21:11:52;;;;;;;9.90;3.60;;;24.50;55.00;;;;;;228770;1263;22624;-62
2023/09/15 21:16:56;;;;;;;10.10;3.00;;;24.60;54.30;;;;;;227262;1263;22856;-58
2023/09/15 21:22:01;;;;;;;8.60;3.00;;;24.50;55.20;;;;;;229699;1253;22296;-57
2023/09/15 21:27:04;;;;;;;5.20;4.70;;;24.60;55.10;;;;;;229764;1263;22228;-57
2023/09/15 21:32:06;;;;;;;6.50;2.90;;;24.70;54.80;;;;;;229708;1253;22353;-56
2023/09/15 21:37:09;;;;;;;6.20;3.20;;;24.60;54.90;;;;;;225396;1252;22719;-56
2023/09/15 21:42:12;;;;;;;8.60;3.10;;;24.70;54.50;;;;;;229754;1263;22263;-56
2023/09/15 21:47:15;;;;;;;9.40;3.70;;;24.80;54.70;;;;;;229684;1254;22290;-57
2023/09/15 21:52:17;;;;;;;6.30;3.00;;;24.90;53.80;;;;;;229997;1256;22369;-61
2023/09/15 21:57:20;;;;;;;6.40;3.40;;;24.70;54.30;;;;;;230076;1254;22278;-60
2023/09/15 22:02:23;;;;;;;8.60;3.30;;;24.80;54.30;;;;;;230199;1253;22298;-59
2023/09/15 22:07:26;;;;;;;6.10;3.50;;;24.90;53.80;;;;;;230179;1249;22348;-61
2023/09/15 22:12:29;;;;;;;4.80;3.10;;;24.70;54.20;;;;;;230160;1254;22852;-59
2023/09/15 22:17:33;;;;;;;5.10;3.30;;;24.70;54.70;;;;;;229875;1247;22371;-56
2023/09/15 22:22:36;;;;;;;6.20;4.30;;;24.70;54.30;;;;;;229606;1254;22295;-58
2023/09/15 22:27:39;;;;;;;5.40;3.30;;;24.70;54.10;;;;;;225783;1254;23487;-60
2023/09/15 22:32:42;;;;;;;3.70;2.80;;;24.60;54.20;;;;;;229611;1254;22303;-60
2023/09/15 22:37:45;;;;;;;3.90;2.70;;;24.50;54.20;;;;;;229561;1254;22376;-59
2023/09/15 22:42:48;;;;;;;4.80;3.40;;;24.60;54.10;;;;;;229583;1247;22286;-57
2023/09/15 22:47:59;;;;;;;6.20;3.10;;;24.60;54.00;;;;;;229477;1247;23397;-60
2023/09/15 22:53:03;;;;;;;3.80;3.20;;;24.60;54.20;;;;;;229489;1248;22254;-57
2023/09/15 22:58:06;;;;;;;3.70;3.20;;;24.60;54.10;;;;;;229518;1248;22387;-59
2023/09/15 23:03:08;;;;;;;4.60;3.40;;;24.50;54.30;;;;;;229642;1248;23313;-61
2023/09/15 23:08:12;;;;;;;4.60;3.00;;;24.40;54.30;;;;;;229524;1247;22282;-61
2023/09/15 23:13:14;;;;;;;4.70;3.40;;;24.70;53.70;;;;;;229591;1248;23025;-61
2023/09/15 23:18:17;;;;;;;3.60;3.10;;;24.60;54.20;;;;;;229539;1251;22282;-61
2023/09/15 23:23:23;;;;;;;4.30;2.80;;;24.70;54.50;;;;;;229585;1251;22263;-60
2023/09/15 23:28:26;;;;;;;5.50;3.00;;;24.60;54.60;;;;;;229515;1254;22436;-61
2023/09/15 23:33:28;;;;;;;3.60;3.00;;;24.50;55.00;;;;;;229537;1254;22322;-61
2023/09/15 23:38:31;;;;;;;4.30;3.30;;;24.50;55.20;;;;;;229389;1248;22441;-61
2023/09/15 23:43:35;;;;;;;3.60;2.50;;;24.50;54.90;;;;;;229506;1247;22282;-61
2023/09/15 23:48:38;;;;;;;4.80;3.20;;;24.60;55.10;;;;;;229535;1248;22283;-60
2023/09/15 23:53:40;;;;;;;2.90;2.60;;;24.60;54.90;;;;;;229570;1247;24042;-61
2023/09/15 23:58:43;;;;;;;4.40;3.20;;;24.50;55.30;;;;;;229541;1248;22243;-61
